Portada
METAR-TAF:

METAR-TAF

Aeropuertos :

Sindal, Dinamarca

latitud: 57-30N, longitud: 010-13E, altitud: 28 m

Observación

El informe se hizo hace 4 horas y 18 minutos, a las 13:50 UTC
Viento 16 kt del sur
Temperatura 10°C
Humedad 87%
Presión 996 hPa
Visibilidad 10 km o más
Escasas nubes a una altura de 2200 ft
Cielo nuboso a una altura de 5000 ft

METAR: EKSN 271350Z 18016KT 9999 FEW022 BKN050 10/08 Q0996

Hora: 19:08 (18:08 UTC)

Pronóstico

El informe se hizo hace 6 horas y 9 minutos, a las 11:59 UTC
Pronóstico válido del 27 a las 12 UTC al 27 a las 16 UTC
Viento 18 kt del sur
Visibilidad 10 km o más
Nubes dispersas a una altura de 1800 ft
Temporalmente
del 27 a las 12 UTC al 27 a las 16 UTC
Cielo nuboso a una altura de 1200 ft
Cielo nuboso a una altura de 2000 ft, Cumulonimbus.
chaparrones de lluvia

TAF: EKSN 271159Z 2712/2716 18018KT 9999 SCT018 TEMPO 2712/2716 SHRA BKN012 BKN020CB

Observaciones y pronósticos meteorológicos de más de 4000 aeropuertos (mensajes METAR y TAF).

Los puntos amarillos y rojos representan las estaciones disponibles.

Ponga el ratón en el punto deseado para ver el nombre de la estación.

Haga clic para ver las observaciones y los pronósticos meteorológicos.

Para cambiar el mapa : haga clic en los botones verdes con una cruz de color negro para hacer un zoom, en el botón verde con un guión para alejar o en las flechas verdes para mapas adyacentes.


METAR-TAF: